Wadsworth, Texas
Current Conditions -  °F | °C
As of 2:53 AM on Saturday 29 Nov 2014 (Local Time) from KPSX Reporting Station
Clear Clear  
Wind Chill: 62°   Ceiling: Unl
Heat Index: 62°   Visibility: 10mi
Dew Point: 60°   Wind: 8mph
Humidity: 93%   Direction: 180°S
Pressure: 30.1"   Gusts: NA
Location:  28.83°N, 95.94°W
Report Text: KPSX 290853Z AUTO 18007KT 10SM CLR 17/16 A3010 RMK AO2 SLP192 T01670156 57010
Loading
Personal Weather Stations






























Interactive Weather Map New forecast layout! Learn more

10-Day Weather Forecast

Advertisements
Track Severe Weather on mobile